createdAt,value
2023-02-23T06:02:59.219Z,101463.13
2023-02-23T06:05:29.966Z,101461.91
2023-02-23T06:08:06.233Z,101469.63
2023-02-23T06:10:36.339Z,101466.97
2023-02-23T06:13:13.173Z,101468.81
2023-02-23T06:15:43.511Z,101466.97
2023-02-23T06:18:23.275Z,101473.25
2023-02-23T06:20:53.345Z,101479.53
2023-02-23T06:23:30.237Z,101477.84
2023-02-23T06:26:01.049Z,101476.19
2023-02-23T06:28:38.268Z,101472.53
2023-02-23T06:31:09.062Z,101484.16
2023-02-23T06:33:48.259Z,101485.13
2023-02-23T06:36:25.222Z,101491.41
2023-02-23T06:38:58.443Z,101485.13
2023-02-23T06:41:35.260Z,101486.84
2023-02-23T06:44:05.331Z,101497.19
2023-02-23T06:46:43.316Z,101496.38
2023-02-23T06:49:16.869Z,101496.38
2023-02-23T06:51:54.274Z,101492.75
2023-02-23T06:54:31.325Z,101505.06
2023-02-23T06:57:01.379Z,101500.59
2023-02-23T06:59:38.280Z,101501.56
2023-02-23T07:02:09.797Z,101507.00
2023-02-23T07:04:49.284Z,101505.31
2023-02-23T07:07:19.387Z,101513.16
2023-02-23T07:09:56.303Z,101510.41
2023-02-23T07:12:33.360Z,101523.56
2023-02-23T07:15:03.460Z,101527.78
2023-02-23T07:17:40.259Z,101534.78
2023-02-23T07:20:15.475Z,101533.97
2023-02-23T07:22:52.295Z,101544.47
2023-02-23T07:25:29.341Z,101548.09
2023-02-23T07:28:00.253Z,101556.78
2023-02-23T07:30:36.320Z,101553.19
2023-02-23T07:33:06.369Z,101569.03
2023-02-23T07:35:45.337Z,101565.13
2023-02-23T07:38:15.496Z,101565.91
2023-02-23T07:40:52.342Z,101566.53
2023-02-23T07:43:30.352Z,101566.16
2023-02-23T07:46:04.399Z,101568.56
2023-02-23T07:48:41.306Z,101571.22
2023-02-23T07:51:17.608Z,101580.63
2023-02-23T07:53:55.319Z,101578.72
2023-02-23T07:56:32.323Z,101578.59
2023-02-23T07:59:02.455Z,101580.88
2023-02-23T08:01:39.360Z,101583.03
2023-02-23T08:04:09.591Z,101589.97
2023-02-23T08:06:48.332Z,101589.09
2023-02-23T08:09:26.382Z,101587.16
2023-02-23T08:12:03.342Z,101597.81
2023-02-23T08:14:33.583Z,101603.84
2023-02-23T08:17:10.358Z,101606.53
2023-02-23T08:19:47.398Z,101607.97
2023-02-23T08:22:20.039Z,101609.66
2023-02-23T08:24:56.362Z,101605.16
2023-02-23T08:27:33.366Z,101616.56
2023-02-23T08:30:05.448Z,101609.41
2023-02-23T08:32:44.437Z,101620.03
2023-02-23T08:35:15.034Z,101612.78
2023-02-23T08:37:54.377Z,101616.06
2023-02-23T08:40:24.428Z,101613.03
2023-02-23T08:43:01.419Z,101610.84
2023-02-23T08:45:32.062Z,101614.94
2023-02-23T08:48:08.425Z,101617.84
2023-02-23T08:50:38.708Z,101628.25
2023-02-23T08:53:17.444Z,101627.00
2023-02-23T08:55:54.382Z,101634.75
2023-02-23T08:58:24.427Z,101636.19
2023-02-23T09:01:01.425Z,101637.88
2023-02-23T09:03:33.582Z,101649.72
2023-02-23T09:06:19.514Z,101649.47
2023-02-23T09:08:59.429Z,101655.03
2023-02-23T09:11:29.535Z,101648.00
2023-02-23T09:14:06.407Z,101650.69
2023-02-23T09:16:46.458Z,101656.00
2023-02-23T09:19:16.634Z,101664.84
2023-02-23T09:21:53.401Z,101660.81
2023-02-23T09:24:32.517Z,101660.56
2023-02-23T09:27:02.502Z,101665.66
2023-02-23T09:29:39.456Z,101661.28
2023-02-23T09:32:09.797Z,101660.06
2023-02-23T09:34:46.427Z,101664.88
2023-02-23T09:37:23.458Z,101671.06
2023-02-23T09:40:02.481Z,101679.19
2023-02-23T09:42:48.447Z,101676.50
2023-02-23T09:45:32.937Z,101680.88
2023-02-23T09:48:23.658Z,101674.47
2023-02-23T09:50:57.204Z,101678.44
2023-02-23T09:53:45.860Z,101681.81
2023-02-23T09:59:02.551Z,101675.13
2023-02-23T10:01:56.242Z,101676.22
2023-02-23T10:04:36.574Z,101676.69
2023-02-23T10:07:24.075Z,101679.34
2023-02-23T10:10:18.690Z,101680.56
2023-02-23T10:13:05.591Z,101673.03
2023-02-23T10:15:56.549Z,101684.19
2023-02-23T10:18:46.602Z,101687.28
2023-02-23T10:21:30.543Z,101682.94
2023-02-23T10:24:13.592Z,101687.28
2023-02-23T10:26:57.595Z,101681.56
2023-02-23T10:29:34.632Z,101690.88
2023-02-23T10:32:23.747Z,101687.22
2023-02-23T10:34:58.526Z,101686.16
2023-02-23T10:37:35.566Z,101689.16
2023-02-23T10:40:13.679Z,101689.38
2023-02-23T10:42:50.722Z,101696.47
2023-02-23T10:45:25.996Z,101689.84
2023-02-23T10:48:10.636Z,101703.41
2023-02-23T10:50:43.949Z,101706.25
2023-02-23T10:53:26.772Z,101706.25
2023-02-23T10:56:11.398Z,101701.31
2023-02-23T10:58:56.575Z,101704.44
2023-02-23T11:02:01.339Z,101692.16
2023-02-23T11:04:43.659Z,101699.66
2023-02-23T11:07:21.786Z,101704.28
2023-02-23T11:09:59.649Z,101698.22
2023-02-23T11:12:41.892Z,101699.03
2023-02-23T11:15:49.962Z,101703.19
2023-02-23T11:18:26.240Z,101709.66
2023-02-23T11:21:06.645Z,101710.06
2023-02-23T11:23:39.510Z,101718.59
2023-02-23T11:26:45.629Z,101716.72
2023-02-23T11:29:29.603Z,101720.75
2023-02-23T11:32:05.333Z,101717.38
2023-02-23T11:34:49.642Z,101721.84
2023-02-23T11:37:26.066Z,101725.75
2023-02-23T11:40:04.593Z,101727.56
2023-02-23T11:42:35.990Z,101721.84
2023-02-23T11:45:15.685Z,101713.31
2023-02-23T11:47:51.202Z,101706.47
2023-02-23T11:50:36.650Z,101705.13
2023-02-23T11:53:19.206Z,101716.63
2023-02-23T11:56:01.671Z,101710.53
2023-02-23T11:58:40.807Z,101705.63
2023-02-23T12:01:20.627Z,101708.34
2023-02-23T12:03:55.149Z,101703.06
2023-02-23T12:06:41.734Z,101704.47
2023-02-23T12:09:23.973Z,101697.97
2023-02-23T12:12:08.671Z,101694.56
2023-02-23T12:14:56.659Z,101692.16
2023-02-23T12:17:30.858Z,101699.19
2023-02-23T12:20:11.772Z,101709.25
2023-02-23T12:22:45.946Z,101712.47
2023-02-23T12:25:34.800Z,101713.00
2023-02-23T12:28:18.911Z,101714.69
2023-02-23T12:31:02.745Z,101707.13
2023-02-23T12:33:39.546Z,101709.09
2023-02-23T12:36:32.676Z,101700.53
2023-02-23T12:39:15.702Z,101702.84
2023-02-23T12:41:59.928Z,101705.22
2023-02-23T12:44:50.763Z,101708.09
2023-02-23T12:47:35.002Z,101709.88
2023-02-23T12:50:18.693Z,101704.47
2023-02-23T12:53:00.781Z,101706.22
2023-02-23T13:01:04.807Z,101693.88
2023-02-23T13:04:07.966Z,101688.69
2023-02-23T13:14:45.753Z,101682.50
2023-02-23T13:17:42.887Z,101682.97
2023-02-23T13:20:25.504Z,101688.94
2023-02-23T13:23:15.799Z,101692.03
2023-02-23T13:25:57.003Z,101680.22
2023-02-23T13:28:48.720Z,101688.38
2023-02-23T13:31:34.988Z,101691.78
2023-02-23T13:34:13.709Z,101686.25
2023-02-23T13:36:55.071Z,101683.88
2023-02-23T13:39:49.326Z,101693.13
2023-02-23T13:42:49.793Z,101695.63
2023-02-23T13:45:45.844Z,101691.41
2023-02-23T13:48:19.097Z,101699.56
2023-02-23T13:51:06.761Z,101696.47
2023-02-23T13:53:50.757Z,101704.34
2023-02-23T13:56:30.803Z,101702.75
2023-02-23T13:59:04.559Z,101700.50
2023-02-23T14:13:41.679Z,101703.91
2023-02-23T14:16:23.146Z,101715.16
2023-02-23T14:19:19.737Z,101713.25
2023-02-23T14:22:02.659Z,101714.53
2023-02-23T14:24:39.670Z,101721.13
2023-02-23T14:27:40.483Z,101714.75
2023-02-23T14:30:37.851Z,101713.47
2023-02-23T14:33:45.884Z,101708.97
2023-02-23T14:36:46.667Z,101711.31
2023-02-23T14:39:33.808Z,101704.78
2023-02-23T14:42:10.329Z,101695.91
2023-02-23T14:44:49.968Z,101695.53
2023-02-23T14:47:25.337Z,101694.84
2023-02-23T14:50:07.705Z,101690.75
2023-02-23T14:52:44.746Z,101691.63
2023-02-23T14:55:31.670Z,101703.44
2023-02-23T14:58:09.828Z,101700.19
2023-02-23T15:00:46.634Z,101702.44
2023-02-23T15:03:28.842Z,101708.19
2023-02-23T15:06:02.516Z,101708.84
2023-02-23T15:08:42.838Z,101733.28
2023-02-23T15:11:17.583Z,101737.84
2023-02-23T15:14:01.777Z,101745.19
2023-02-23T15:16:36.519Z,101742.97
2023-02-23T15:19:16.780Z,101741.91
2023-02-23T15:21:53.194Z,101741.22
2023-02-23T15:24:35.853Z,101736.06
2023-02-23T15:27:12.848Z,101745.28
2023-02-23T15:29:43.766Z,101750.25
2023-02-23T15:32:27.940Z,101754.16
2023-02-23T15:35:05.120Z,101758.78
2023-02-23T15:37:56.582Z,101756.34
2023-02-23T15:40:37.213Z,101770.38
2023-02-23T15:43:15.084Z,101778.13
2023-02-23T15:45:51.924Z,101780.06
2023-02-23T15:48:36.280Z,101785.25
2023-02-23T15:51:09.207Z,101776.38
2023-02-23T15:53:49.784Z,101780.97
2023-02-23T15:56:27.988Z,101779.31
2023-02-23T15:59:10.875Z,101779.41
2023-02-23T16:01:47.113Z,101774.44
2023-02-23T16:04:27.985Z,101781.47
2023-02-23T16:07:18.090Z,101767.50
2023-02-23T16:10:02.803Z,101769.69
2023-02-23T16:12:35.596Z,101763.72
2023-02-23T16:15:19.904Z,101774.34
2023-02-23T16:17:57.920Z,101776.28
2023-02-23T16:20:44.898Z,101779.94
2023-02-23T16:23:34.176Z,101780.59
2023-02-23T16:26:18.417Z,101788.59
2023-02-23T16:28:50.140Z,101784.94
2023-02-23T16:31:35.066Z,101786.84
2023-02-23T16:34:11.873Z,101792.63
2023-02-23T16:36:43.460Z,101795.63
2023-02-23T16:39:23.795Z,101793.38
2023-02-23T16:42:00.951Z,101802.81
2023-02-23T16:44:42.986Z,101811.53
2023-02-23T16:47:43.877Z,101803.75
2023-02-23T16:50:19.995Z,101808.59
2023-02-23T16:53:01.082Z,101803.09
2023-02-23T16:55:39.438Z,101821.63
2023-02-23T16:58:24.963Z,101809.94
2023-02-23T17:00:56.534Z,101815.03
2023-02-23T17:03:43.762Z,101813.81
2023-02-23T17:06:17.608Z,101815.78
2023-02-23T17:08:58.604Z,101814.53
2023-02-23T17:11:32.152Z,101814.38
2023-02-23T17:14:08.951Z,101821.59
2023-02-23T17:16:39.220Z,101822.09
2023-02-23T17:19:15.903Z,101831.88
2023-02-23T17:21:45.964Z,101830.06
2023-02-23T17:24:22.917Z,101831.50
2023-02-23T17:26:56.368Z,101830.63
2023-02-23T17:29:32.966Z,101839.13
2023-02-23T17:32:03.872Z,101841.69
2023-02-23T17:34:40.949Z,101844.25
2023-02-23T17:37:11.779Z,101841.50
2023-02-23T17:39:47.967Z,101851.06
2023-02-23T17:42:24.354Z,101855.75
2023-02-23T17:45:01.065Z,101854.66
2023-02-23T17:47:33.569Z,101851.19
2023-02-23T17:50:11.959Z,101860.59
2023-02-23T17:52:48.958Z,101859.25
2023-02-23T17:55:20.017Z,101854.88
2023-02-23T17:57:58.892Z,101861.63
2023-02-23T18:00:29.327Z,101861.38
2023-02-23T18:03:06.049Z,101860.53
2023-02-23T18:05:36.448Z,101853.31
2023-02-23T18:08:12.976Z,101855.09
2023-02-23T18:10:43.207Z,101863.44
2023-02-23T18:13:23.000Z,101860.88
2023-02-23T18:15:54.339Z,101869.38
2023-02-23T18:18:32.002Z,101874.59
2023-02-23T18:21:03.802Z,101874.91
2023-02-23T18:23:42.906Z,101879.06
2023-02-23T18:26:16.888Z,101885.13
2023-02-23T18:28:57.936Z,101878.53
2023-02-23T18:31:30.847Z,101883.63
2023-02-23T18:34:09.064Z,101873.97
2023-02-23T18:36:42.576Z,101883.72
2023-02-23T18:39:19.962Z,101884.47
2023-02-23T18:41:51.320Z,101895.00
2023-02-23T18:44:32.421Z,101884.91
2023-02-23T18:47:03.694Z,101886.00
2023-02-23T18:49:40.032Z,101893.22
2023-02-23T18:52:11.058Z,101891.28
2023-02-23T18:54:49.097Z,101892.69
2023-02-23T18:57:19.303Z,101885.00
2023-02-23T18:59:59.042Z,101892.03
2023-02-23T19:02:29.699Z,101888.41
2023-02-23T19:05:09.054Z,101879.81
2023-02-23T19:07:39.441Z,101877.28
2023-02-23T19:10:19.111Z,101871.97
2023-02-23T19:12:49.434Z,101875.78
2023-02-23T19:15:29.072Z,101870.16
2023-02-23T19:18:06.165Z,101871.53
2023-02-23T19:20:36.608Z,101868.78
2023-02-23T19:23:15.062Z,101874.19
2023-02-23T19:25:54.059Z,101867.50
2023-02-23T19:28:31.010Z,101877.06
2023-02-23T19:31:09.034Z,101868.25
2023-02-23T19:33:47.036Z,101864.63
2023-02-23T19:36:29.859Z,101863.88
2023-02-23T19:39:12.150Z,101863.88
2023-02-23T19:41:43.159Z,101856.38
2023-02-23T19:44:21.053Z,101866.88
2023-02-23T19:46:54.080Z,101861.69
2023-02-23T19:49:31.164Z,101864.09
2023-02-23T19:52:01.372Z,101867.69
2023-02-23T19:54:41.060Z,101858.91
2023-02-23T19:57:11.717Z,101863.38
2023-02-23T19:59:49.080Z,101866.03
2023-02-23T20:02:22.646Z,101873.56
2023-02-23T20:05:00.132Z,101867.53
2023-02-23T20:07:30.365Z,101862.41
2023-02-23T20:10:08.493Z,101865.81
2023-02-23T20:12:39.605Z,101864.75
2023-02-23T20:15:21.115Z,101871.44
2023-02-23T20:17:54.101Z,101868.56
2023-02-23T20:20:32.095Z,101856.75
2023-02-23T20:23:11.110Z,101860.13
2023-02-23T20:25:44.813Z,101859.78
2023-02-23T20:28:26.093Z,101861.34
2023-02-23T20:30:57.655Z,101858.34
2023-02-23T20:33:38.110Z,101859.06
2023-02-23T20:36:08.981Z,101858.59
2023-02-23T20:38:46.155Z,101860.94
2023-02-23T20:41:16.172Z,101857.72
2023-02-23T20:43:53.127Z,101858.09
2023-02-23T20:46:23.582Z,101857.56
2023-02-23T20:49:03.179Z,101856.16
2023-02-23T20:51:33.751Z,101856.56
2023-02-23T20:54:15.281Z,101855.44
2023-02-23T20:56:58.891Z,101854.13
2023-02-23T20:59:39.247Z,101861.50
2023-02-23T21:02:13.983Z,101853.97
2023-02-23T21:04:53.237Z,101852.56
2023-02-23T21:07:25.864Z,101850.28
2023-02-23T21:10:06.171Z,101847.00
2023-02-23T21:12:36.524Z,101843.78
2023-02-23T21:15:16.145Z,101844.06
2023-02-23T21:17:46.415Z,101843.47
2023-02-23T21:20:26.144Z,101840.38
2023-02-23T21:22:56.414Z,101842.38
2023-02-23T21:25:36.215Z,101839.16
2023-02-23T21:28:06.440Z,101840.19
2023-02-23T21:30:43.234Z,101837.84
2023-02-23T21:33:20.390Z,101845.19
2023-02-23T21:35:54.821Z,101855.13
2023-02-23T21:38:33.273Z,101851.03
2023-02-23T21:41:03.443Z,101842.44
2023-02-23T21:43:41.275Z,101843.56
2023-02-23T21:46:13.487Z,101852.53
2023-02-23T21:48:50.204Z,101850.06
2023-02-23T21:51:23.255Z,101845.06
2023-02-23T21:54:00.290Z,101844.41
2023-02-23T21:56:32.789Z,101846.38
2023-02-23T21:59:10.250Z,101850.31
2023-02-23T22:01:49.280Z,101846.16
2023-02-23T22:04:19.387Z,101843.78
2023-02-23T22:06:58.364Z,101844.91
2023-02-23T22:09:28.796Z,101845.09
2023-02-23T22:12:05.264Z,101844.41
2023-02-23T22:14:35.679Z,101840.34
2023-02-23T22:17:13.308Z,101840.50
2023-02-23T22:19:43.802Z,101839.84
2023-02-23T22:22:26.349Z,101834.72
2023-02-23T22:24:56.607Z,101835.09
2023-02-23T22:27:33.295Z,101838.81
2023-02-23T22:30:05.142Z,101846.81
2023-02-23T22:32:41.524Z,101843.13
2023-02-23T22:35:13.830Z,101838.66
2023-02-23T22:37:53.312Z,101837.13
2023-02-23T22:40:24.495Z,101834.59
2023-02-23T22:43:01.303Z,101834.75
2023-02-23T22:45:31.698Z,101831.56
2023-02-23T22:48:09.464Z,101826.59
2023-02-23T22:50:42.306Z,101823.28
2023-02-23T22:53:21.444Z,101825.34
2023-02-23T22:55:52.884Z,101825.44
2023-02-23T22:58:30.375Z,101820.31
